Time;durP1;ratioP1;P1;durP2;ratioP2;P2;SDS_P1;SDS_P2;PMS_P1;PMS_P2;Temp;Humidity;BMP_temperature;BMP_pressure;BME280_temperature;BME280_humidity;BME280_pressure;Samples;Min_cycle;Max_cycle;Signal;HPM_P1;HPM_P2
2023/06/08 00:02:44;;;;;;;4.20;3.80;;;;;;;;;;6347440;28;20934;-63
2023/06/08 00:05:47;;;;;;;4.40;4.00;;;;;;;;;;6347556;28;20451;-65
2023/06/08 00:08:50;;;;;;;4.90;4.20;;;;;;;;;;6345969;28;20444;-64
2023/06/08 00:11:55;;;;;;;4.53;4.13;;;;;;;;;;6334735;28;20804;-63
2023/06/08 00:14:57;;;;;;;4.30;3.90;;;;;;;;;;6348210;27;20445;-63
2023/06/08 00:18:00;;;;;;;4.00;3.60;;;;;;;;;;6346385;28;20437;-63
2023/06/08 00:21:03;;;;;;;6.00;4.13;;;;;;;;;;6344246;28;20436;-63
2023/06/08 00:24:06;;;;;;;4.80;3.50;;;;;;;;;;6336543;28;20501;-62
2023/06/08 00:27:11;;;;;;;3.70;3.40;;;;;;;;;;6346145;28;20515;-63
2023/06/08 00:30:15;;;;;;;3.73;2.87;;;;;;;;;;6346182;28;20436;-63
2023/06/08 00:33:17;;;;;;;3.43;3.13;;;;;;;;;;6335826;28;20461;-63
2023/06/08 00:36:20;;;;;;;3.40;3.10;;;;;;;;;;6344676;28;20464;-63
2023/06/08 00:39:23;;;;;;;3.70;3.10;;;;;;;;;;6347937;28;20437;-63
2023/06/08 00:42:27;;;;;;;4.30;3.37;;;;;;;;;;6346494;28;20455;-63
2023/06/08 00:45:30;;;;;;;3.43;3.13;;;;;;;;;;6336089;28;20882;-63
2023/06/08 00:48:33;;;;;;;3.57;3.13;;;;;;;;;;6330197;28;20513;-63
2023/06/08 00:51:39;;;;;;;3.73;3.20;;;;;;;;;;6336520;28;20432;-67
2023/06/08 00:54:43;;;;;;;3.70;3.40;;;;;;;;;;6345753;28;20636;-64
2023/06/08 00:57:49;;;;;;;3.17;2.87;;;;;;;;;;6335209;28;20948;-63
2023/06/08 01:00:52;;;;;;;3.37;3.07;;;;;;;;;;6345832;28;20452;-63
2023/06/08 01:03:55;;;;;;;3.10;2.80;;;;;;;;;;6339573;28;20966;-64
2023/06/08 01:07:04;;;;;;;3.57;3.27;;;;;;;;;;6333529;28;20483;-63
2023/06/08 01:10:10;;;;;;;3.40;3.10;;;;;;;;;;6332746;28;20467;-66
2023/06/08 01:13:17;;;;;;;6.00;3.20;;;;;;;;;;6344443;28;20428;-66
2023/06/08 01:16:21;;;;;;;2.80;2.60;;;;;;;;;;6331304;28;20531;-68
2023/06/08 01:19:28;;;;;;;5.30;3.10;;;;;;;;;;6333310;28;20443;-68
2023/06/08 01:22:41;;;;;;;3.03;2.83;;;;;;;;;;6343043;28;20439;-67
2023/06/08 01:25:46;;;;;;;3.83;3.23;;;;;;;;;;6345817;28;20788;-66
2023/06/08 01:28:49;;;;;;;4.53;3.10;;;;;;;;;;6344200;28;20926;-67
2023/06/08 01:31:52;;;;;;;3.20;2.90;;;;;;;;;;6329719;28;20527;-67
2023/06/08 01:34:55;;;;;;;4.20;2.80;;;;;;;;;;6341929;28;20448;-68
2023/06/08 01:37:59;;;;;;;4.10;2.93;;;;;;;;;;6345295;28;20464;-64
2023/06/08 01:41:06;;;;;;;3.20;2.70;;;;;;;;;;6335873;28;20820;-65
2023/06/08 01:44:11;;;;;;;3.23;2.67;;;;;;;;;;6344696;28;20436;-66
2023/06/08 01:47:14;;;;;;;3.03;2.80;;;;;;;;;;6346486;28;20780;-66
2023/06/08 01:50:18;;;;;;;3.43;2.90;;;;;;;;;;6342862;28;20429;-67
2023/06/08 01:53:21;;;;;;;2.67;2.47;;;;;;;;;;6334232;28;20812;-66
2023/06/08 01:56:27;;;;;;;3.00;2.70;;;;;;;;;;6346288;28;20452;-67
2023/06/08 01:59:30;;;;;;;2.87;2.67;;;;;;;;;;6345096;28;20448;-67
2023/06/08 02:02:33;;;;;;;3.00;2.47;;;;;;;;;;6345059;28;20452;-67
2023/06/08 02:05:36;;;;;;;3.07;2.87;;;;;;;;;;6333824;28;21005;-66
2023/06/08 02:08:39;;;;;;;3.60;3.30;;;;;;;;;;6343419;28;20424;-67
2023/06/08 02:11:44;;;;;;;3.60;2.77;;;;;;;;;;6334250;28;20433;-66
2023/06/08 02:14:47;;;;;;;3.40;3.10;;;;;;;;;;6339494;28;20997;-67
2023/06/08 02:17:51;;;;;;;2.97;2.77;;;;;;;;;;6340057;28;20444;-66
2023/06/08 02:20:54;;;;;;;3.60;2.97;;;;;;;;;;6345981;28;20440;-67
2023/06/08 02:23:57;;;;;;;3.10;2.70;;;;;;;;;;6340316;28;20432;-66
2023/06/08 02:27:02;;;;;;;3.40;2.87;;;;;;;;;;6334418;28;20551;-66
2023/06/08 02:30:06;;;;;;;3.80;3.07;;;;;;;;;;6331353;28;20441;-66
2023/06/08 02:33:10;;;;;;;3.03;2.73;;;;;;;;;;6343237;28;20437;-66
2023/06/08 02:36:12;;;;;;;4.63;3.07;;;;;;;;;;6343147;28;20444;-70
2023/06/08 02:39:16;;;;;;;5.80;3.20;;;;;;;;;;6328390;27;20433;-63
2023/06/08 02:42:20;;;;;;;3.17;2.87;;;;;;;;;;6348421;28;20436;-63
2023/06/08 02:45:23;;;;;;;6.70;3.20;;;;;;;;;;6350093;28;20428;-65
2023/06/08 02:48:26;;;;;;;4.10;3.17;;;;;;;;;;6348315;28;20434;-71
2023/06/08 02:51:28;;;;;;;3.70;3.40;;;;;;;;;;6339000;28;20440;-71
2023/06/08 02:54:31;;;;;;;15.53;8.27;;;;;;;;;;6345892;28;20436;-65
2023/06/08 02:57:36;;;;;;;8.50;6.70;;;;;;;;;;6346717;28;20735;-66
2023/06/08 03:00:39;;;;;;;5.50;4.73;;;;;;;;;;6337254;28;20436;-67
2023/06/08 03:03:42;;;;;;;7.80;5.30;;;;;;;;;;6336196;28;20825;-66
2023/06/08 03:06:45;;;;;;;5.83;5.23;;;;;;;;;;6344801;28;20527;-66
2023/06/08 03:09:48;;;;;;;7.77;5.00;;;;;;;;;;6340577;28;20783;-65
2023/06/08 03:12:52;;;;;;;10.63;7.53;;;;;;;;;;6332306;28;20535;-64
2023/06/08 03:15:55;;;;;;;9.30;8.40;;;;;;;;;;6344168;28;20802;-64
2023/06/08 03:18:58;;;;;;;10.30;9.40;;;;;;;;;;6340117;28;21955;-65
2023/06/08 03:22:02;;;;;;;11.13;10.13;;;;;;;;;;6339416;28;20436;-65
2023/06/08 03:25:05;;;;;;;11.33;9.10;;;;;;;;;;6334142;27;20450;-66
2023/06/08 03:28:10;;;;;;;10.17;9.00;;;;;;;;;;6342555;28;20821;-66
2023/06/08 03:31:13;;;;;;;13.80;12.50;;;;;;;;;;6348086;28;20476;-69
2023/06/08 03:34:17;;;;;;;12.37;10.97;;;;;;;;;;6341075;28;20441;-68
2023/06/08 03:37:19;;;;;;;11.57;10.47;;;;;;;;;;6337281;28;20456;-68
2023/06/08 03:40:22;;;;;;;10.70;9.60;;;;;;;;;;6342071;28;20441;-69
2023/06/08 03:43:27;;;;;;;9.87;8.87;;;;;;;;;;6348440;28;20537;-69
2023/06/08 03:46:29;;;;;;;10.43;9.47;;;;;;;;;;6335083;28;20458;-69
2023/06/08 03:49:32;;;;;;;11.20;10.10;;;;;;;;;;6347560;27;20432;-68
2023/06/08 03:52:35;;;;;;;12.27;11.20;;;;;;;;;;6347517;28;20429;-69
2023/06/08 03:55:38;;;;;;;10.73;9.73;;;;;;;;;;6347541;28;20482;-68
2023/06/08 03:58:42;;;;;;;10.20;9.13;;;;;;;;;;6336220;27;20971;-69
2023/06/08 04:01:45;;;;;;;16.57;7.93;;;;;;;;;;6344742;28;20448;-67
2023/06/08 04:04:48;;;;;;;7.50;6.10;;;;;;;;;;6343561;28;20472;-63
2023/06/08 04:07:51;;;;;;;15.63;6.67;;;;;;;;;;6348230;28;21017;-67
2023/06/08 04:10:54;;;;;;;14.77;5.80;;;;;;;;;;6332826;28;20429;-67
2023/06/08 04:13:59;;;;;;;58.47;8.60;;;;;;;;;;6348459;28;20562;-69
2023/06/08 04:17:01;;;;;;;24.30;6.00;;;;;;;;;;6339375;28;20589;-67
2023/06/08 04:20:07;;;;;;;17.90;5.93;;;;;;;;;;6343913;28;20817;-65
2023/06/08 04:23:23;;;;;;;22.37;15.30;;;;;;;;;;6338597;28;20554;-61
2023/06/08 04:26:28;;;;;;;16.30;12.00;;;;;;;;;;6349307;28;20429;-62
2023/06/08 04:29:40;;;;;;;11.97;8.97;;;;;;;;;;6348999;28;20509;-61
2023/06/08 04:33:01;;;;;;;13.67;6.43;;;;;;;;;;6340848;27;20436;-65
2023/06/08 04:36:19;;;;;;;10.30;6.33;;;;;;;;;;6349484;28;20475;-66
2023/06/08 04:39:24;;;;;;;10.03;7.23;;;;;;;;;;6347259;28;20432;-65
2023/06/08 04:42:39;;;;;;;8.83;7.27;;;;;;;;;;6346272;28;20842;-67
2023/06/08 04:45:57;;;;;;;8.13;7.30;;;;;;;;;;6345423;27;20425;-65
2023/06/08 04:49:02;;;;;;;9.50;8.60;;;;;;;;;;6348785;28;20428;-65
2023/06/08 04:52:08;;;;;;;8.90;7.80;;;;;;;;;;6348121;28;20436;-66
2023/06/08 04:55:13;;;;;;;8.97;7.60;;;;;;;;;;6337136;28;20470;-65
2023/06/08 04:58:18;;;;;;;10.80;9.80;;;;;;;;;;6346911;28;20576;-65
2023/06/08 05:05:00;;;;;;;11.07;9.90;;;;;;;;;;6325616;28;20438;-65
2023/06/08 05:08:05;;;;;;;11.80;10.20;;;;;;;;;;6341309;28;20435;-66
2023/06/08 05:11:08;;;;;;;8.80;7.90;;;;;;;;;;6339128;28;20428;-65
2023/06/08 05:14:11;;;;;;;8.60;7.90;;;;;;;;;;6327242;27;20438;-66
2023/06/08 05:17:15;;;;;;;9.00;8.10;;;;;;;;;;6337513;28;20452;-66
2023/06/08 05:20:19;;;;;;;12.97;11.67;;;;;;;;;;6344192;28;20917;-66
2023/06/08 05:23:22;;;;;;;13.40;12.20;;;;;;;;;;6346886;28;21037;-65
2023/06/08 05:26:25;;;;;;;13.73;12.53;;;;;;;;;;6346219;28;20444;-66
2023/06/08 05:29:28;;;;;;;10.83;9.20;;;;;;;;;;6335706;28;20527;-66
2023/06/08 05:32:32;;;;;;;13.47;8.77;;;;;;;;;;6346861;28;20509;-65
2023/06/08 05:35:35;;;;;;;10.60;8.47;;;;;;;;;;6347064;28;20443;-68
2023/06/08 05:38:37;;;;;;;7.17;6.57;;;;;;;;;;6347339;28;20436;-69
2023/06/08 05:41:40;;;;;;;11.13;7.97;;;;;;;;;;6323744;28;20437;-62
2023/06/08 05:44:43;;;;;;;11.77;7.77;;;;;;;;;;6342603;28;20979;-62
2023/06/08 05:47:47;;;;;;;6.97;6.17;;;;;;;;;;6335389;28;20437;-62
2023/06/08 05:50:51;;;;;;;6.07;5.47;;;;;;;;;;6341070;28;20432;-64
2023/06/08 05:53:53;;;;;;;9.30;5.97;;;;;;;;;;6340852;28;20559;-63
2023/06/08 05:56:56;;;;;;;7.73;5.93;;;;;;;;;;6338299;28;20446;-63
2023/06/08 05:59:59;;;;;;;8.63;5.90;;;;;;;;;;6341004;28;20448;-65
2023/06/08 06:03:03;;;;;;;10.53;5.63;;;;;;;;;;6336194;28;20929;-68
2023/06/08 06:06:06;;;;;;;8.03;5.83;;;;;;;;;;6347145;28;20539;-66
2023/06/08 06:09:11;;;;;;;10.00;5.80;;;;;;;;;;6347019;28;20527;-62
2023/06/08 06:12:13;;;;;;;9.20;6.60;;;;;;;;;;6348039;27;20470;-62
2023/06/08 06:15:16;;;;;;;21.50;6.57;;;;;;;;;;6339989;28;20440;-62
2023/06/08 06:18:21;;;;;;;12.17;6.43;;;;;;;;;;6348374;28;20456;-64
2023/06/08 06:21:24;;;;;;;10.97;5.40;;;;;;;;;;6342199;28;20424;-63
2023/06/08 06:24:26;;;;;;;7.27;5.90;;;;;;;;;;6338123;28;20440;-65
2023/06/08 06:27:29;;;;;;;18.60;7.13;;;;;;;;;;6328599;28;20432;-65
2023/06/08 06:30:32;;;;;;;28.07;8.60;;;;;;;;;;6349412;28;20436;-64
2023/06/08 06:33:36;;;;;;;19.20;8.57;;;;;;;;;;6350879;28;20530;-65
2023/06/08 06:36:39;;;;;;;14.50;7.27;;;;;;;;;;6340482;28;20444;-66
2023/06/08 06:39:42;;;;;;;21.73;7.10;;;;;;;;;;6350486;28;20454;-65
2023/06/08 06:42:45;;;;;;;18.23;7.80;;;;;;;;;;6351036;28;20565;-65
2023/06/08 06:45:50;;;;;;;17.20;6.83;;;;;;;;;;6350171;28;20432;-64
2023/06/08 06:48:55;;;;;;;15.77;6.07;;;;;;;;;;6340425;27;20443;-64
2023/06/08 06:51:57;;;;;;;12.97;6.47;;;;;;;;;;6333416;28;20436;-66
2023/06/08 06:55:01;;;;;;;6.00;4.47;;;;;;;;;;6350649;28;20420;-66
2023/06/08 06:58:05;;;;;;;9.20;4.80;;;;;;;;;;6350034;28;20784;-66
2023/06/08 07:01:07;;;;;;;10.63;4.57;;;;;;;;;;6338970;28;20528;-69
2023/06/08 07:04:14;;;;;;;10.50;4.50;;;;;;;;;;6344584;28;20425;-66
2023/06/08 07:07:17;;;;;;;9.07;4.40;;;;;;;;;;6341556;28;20436;-67
2023/06/08 07:10:20;;;;;;;6.33;3.57;;;;;;;;;;6336610;28;20465;-67
2023/06/08 07:13:26;;;;;;;6.93;4.07;;;;;;;;;;6331974;28;20433;-67
2023/06/08 07:16:29;;;;;;;7.80;4.20;;;;;;;;;;6349630;28;20447;-67
2023/06/08 07:19:33;;;;;;;6.73;3.87;;;;;;;;;;6345048;28;20440;-67
2023/06/08 07:22:37;;;;;;;8.10;3.83;;;;;;;;;;6329696;27;20449;-66
2023/06/08 07:25:57;;;;;;;8.03;4.57;;;;;;;;;;6334635;28;20455;-66
2023/06/08 07:29:20;;;;;;;6.50;3.77;;;;;;;;;;6340871;28;20834;-71
2023/06/08 07:32:23;;;;;;;8.63;4.60;;;;;;;;;;6349135;28;20435;-70
2023/06/08 07:35:28;;;;;;;7.30;5.00;;;;;;;;;;6327646;28;20465;-67
2023/06/08 07:38:31;;;;;;;5.13;4.50;;;;;;;;;;6342601;28;20448;-67
2023/06/08 07:41:33;;;;;;;7.67;4.50;;;;;;;;;;6346583;28;20446;-67
2023/06/08 07:44:37;;;;;;;5.97;4.80;;;;;;;;;;6341819;27;20484;-67
2023/06/08 07:47:41;;;;;;;6.10;5.07;;;;;;;;;;6344681;27;20514;-68
2023/06/08 07:50:45;;;;;;;5.77;4.07;;;;;;;;;;6349044;28;20443;-70
2023/06/08 07:53:49;;;;;;;5.87;4.03;;;;;;;;;;6348656;28;20440;-67
2023/06/08 07:56:52;;;;;;;5.73;3.90;;;;;;;;;;6337274;28;20443;-67
2023/06/08 07:59:55;;;;;;;10.93;5.87;;;;;;;;;;6348329;28;20889;-68
2023/06/08 08:02:58;;;;;;;17.83;4.70;;;;;;;;;;6345752;28;20433;-68
2023/06/08 08:06:02;;;;;;;9.80;4.77;;;;;;;;;;6349408;28;20436;-67
2023/06/08 08:09:05;;;;;;;9.27;4.83;;;;;;;;;;6339565;28;20432;-68
2023/06/08 08:12:08;;;;;;;11.50;4.60;;;;;;;;;;6348613;28;20437;-68
2023/06/08 08:15:11;;;;;;;7.07;4.47;;;;;;;;;;6349541;28;20439;-68
2023/06/08 08:18:14;;;;;;;11.33;4.70;;;;;;;;;;6344129;28;20830;-67
2023/06/08 08:21:19;;;;;;;5.27;4.40;;;;;;;;;;6338672;28;20436;-67
2023/06/08 08:24:22;;;;;;;5.53;4.40;;;;;;;;;;6348088;28;20437;-67
2023/06/08 08:27:24;;;;;;;4.60;4.20;;;;;;;;;;6348078;28;20432;-66
2023/06/08 08:30:28;;;;;;;6.80;4.00;;;;;;;;;;6324520;28;20445;-67
2023/06/08 08:33:30;;;;;;;6.67;4.73;;;;;;;;;;6343939;28;20432;-68
2023/06/08 08:36:35;;;;;;;5.53;4.67;;;;;;;;;;6338557;27;20555;-68
2023/06/08 08:39:38;;;;;;;11.40;7.60;;;;;;;;;;6349037;28;20449;-68
2023/06/08 08:42:44;;;;;;;31.13;16.50;;;;;;;;;;6336659;28;20531;-67
2023/06/08 08:45:48;;;;;;;20.37;13.60;;;;;;;;;;6349129;28;20428;-67
2023/06/08 08:48:53;;;;;;;13.47;9.90;;;;;;;;;;6347319;28;20949;-69
2023/06/08 08:51:57;;;;;;;13.00;8.93;;;;;;;;;;6345168;28;20442;-69
2023/06/08 08:55:01;;;;;;;10.10;8.70;;;;;;;;;;6336773;28;20428;-68
2023/06/08 08:58:05;;;;;;;9.03;8.13;;;;;;;;;;6347652;28;20779;-69
2023/06/08 09:01:10;;;;;;;9.43;8.10;;;;;;;;;;6344870;28;20957;-69
2023/06/08 09:04:13;;;;;;;9.87;8.10;;;;;;;;;;6330697;28;20444;-67
2023/06/08 09:07:21;;;;;;;9.53;8.20;;;;;;;;;;6346388;28;20954;-68
2023/06/08 09:10:25;;;;;;;10.93;8.27;;;;;;;;;;6347982;28;20597;-69
2023/06/08 09:13:29;;;;;;;8.70;7.80;;;;;;;;;;6342900;28;20429;-67
2023/06/08 09:16:40;;;;;;;12.10;9.50;;;;;;;;;;6335529;28;20455;-68
2023/06/08 09:19:52;;;;;;;8.13;7.20;;;;;;;;;;6344653;28;20502;-68
2023/06/08 09:22:57;;;;;;;7.77;6.70;;;;;;;;;;6344089;28;20795;-67
2023/06/08 09:26:00;;;;;;;8.97;7.80;;;;;;;;;;6343288;28;20801;-66
2023/06/08 09:29:04;;;;;;;8.23;6.67;;;;;;;;;;6322227;28;20864;-68
2023/06/08 09:32:08;;;;;;;10.70;7.60;;;;;;;;;;6340885;28;20432;-68
2023/06/08 09:35:11;;;;;;;9.00;7.90;;;;;;;;;;6337720;28;20432;-67
2023/06/08 09:38:20;;;;;;;8.20;7.27;;;;;;;;;;6335762;27;20448;-66
2023/06/08 09:41:23;;;;;;;9.40;7.90;;;;;;;;;;6337264;28;20927;-66
2023/06/08 09:44:27;;;;;;;7.90;6.30;;;;;;;;;;6338655;28;20499;-67
2023/06/08 09:47:30;;;;;;;7.97;6.20;;;;;;;;;;6346396;28;20440;-68
2023/06/08 09:50:33;;;;;;;8.17;5.90;;;;;;;;;;6335370;27;20520;-67
2023/06/08 09:53:37;;;;;;;7.33;6.63;;;;;;;;;;6347177;28;20921;-68
2023/06/08 09:56:41;;;;;;;13.33;6.87;;;;;;;;;;6347516;28;20432;-69
2023/06/08 09:59:46;;;;;;;7.80;6.93;;;;;;;;;;6347101;28;20448;-69
2023/06/08 10:02:54;;;;;;;6.90;6.20;;;;;;;;;;6335624;28;20601;-68
2023/06/08 10:05:58;;;;;;;5.73;5.17;;;;;;;;;;6338185;28;20528;-68
2023/06/08 10:09:05;;;;;;;5.73;5.23;;;;;;;;;;6336099;28;21053;-67
2023/06/08 10:12:09;;;;;;;8.07;6.30;;;;;;;;;;6342098;28;20546;-69
2023/06/08 10:15:12;;;;;;;4.43;4.00;;;;;;;;;;6340487;28;20515;-68
2023/06/08 10:18:15;;;;;;;4.23;3.93;;;;;;;;;;6340097;28;20539;-68
2023/06/08 10:21:18;;;;;;;7.70;4.60;;;;;;;;;;6325050;28;20908;-68
2023/06/08 10:24:24;;;;;;;5.00;4.60;;;;;;;;;;6319946;28;20933;-68
2023/06/08 10:27:30;;;;;;;5.60;4.80;;;;;;;;;;6346303;28;20447;-68
2023/06/08 10:30:39;;;;;;;5.60;5.00;;;;;;;;;;6337370;28;20440;-65
2023/06/08 10:33:42;;;;;;;4.60;4.20;;;;;;;;;;6346440;28;20464;-64
2023/06/08 10:36:45;;;;;;;6.37;4.93;;;;;;;;;;6335115;28;20448;-64
2023/06/08 10:39:49;;;;;;;6.40;5.10;;;;;;;;;;6346033;28;20814;-66
2023/06/08 10:42:54;;;;;;;5.53;5.03;;;;;;;;;;6339222;28;20563;-66
2023/06/08 10:46:16;;;;;;;10.83;4.77;;;;;;;;;;6338637;28;20440;-64
2023/06/08 10:49:21;;;;;;;6.97;4.60;;;;;;;;;;6340465;28;20436;-64
2023/06/08 10:52:24;;;;;;;6.60;5.50;;;;;;;;;;6341627;28;20497;-64
2023/06/08 10:55:28;;;;;;;12.17;5.10;;;;;;;;;;6338094;28;20467;-65
2023/06/08 10:58:49;;;;;;;6.33;5.07;;;;;;;;;;6330353;28;20456;-66
2023/06/08 11:01:52;;;;;;;9.90;5.27;;;;;;;;;;6347222;28;20437;-65
2023/06/08 11:04:56;;;;;;;12.50;5.77;;;;;;;;;;6350462;27;20436;-65
2023/06/08 11:08:01;;;;;;;6.40;4.90;;;;;;;;;;6347077;28;20444;-65
2023/06/08 11:11:05;;;;;;;7.50;5.73;;;;;;;;;;6336859;28;20574;-64
2023/06/08 11:14:08;;;;;;;5.47;4.90;;;;;;;;;;6344029;28;20445;-65
2023/06/08 11:17:11;;;;;;;7.27;4.60;;;;;;;;;;6345763;28;20480;-65
2023/06/08 11:20:15;;;;;;;6.30;4.33;;;;;;;;;;6342279;28;20882;-65
2023/06/08 11:23:18;;;;;;;5.97;4.40;;;;;;;;;;6340293;27;20463;-66
2023/06/08 11:26:23;;;;;;;6.03;4.30;;;;;;;;;;6345066;28;20436;-65
2023/06/08 11:29:26;;;;;;;9.43;5.73;;;;;;;;;;6344862;28;20428;-64
2023/06/08 11:32:29;;;;;;;5.50;5.00;;;;;;;;;;6337027;28;20433;-65
2023/06/08 11:35:33;;;;;;;12.13;4.77;;;;;;;;;;6346044;28;20436;-64
2023/06/08 11:38:36;;;;;;;5.97;5.03;;;;;;;;;;6349315;28;20436;-68
2023/06/08 11:41:46;;;;;;;10.27;5.20;;;;;;;;;;6348090;28;20447;-62
2023/06/08 11:44:49;;;;;;;5.53;4.30;;;;;;;;;;6338096;28;20432;-62
2023/06/08 11:47:54;;;;;;;5.10;4.60;;;;;;;;;;6349697;28;20442;-61
2023/06/08 11:51:18;;;;;;;8.27;4.17;;;;;;;;;;6348484;28;20428;-65
2023/06/08 11:54:21;;;;;;;6.03;4.03;;;;;;;;;;6343377;28;20459;-64
2023/06/08 11:57:40;;;;;;;3.90;3.60;;;;;;;;;;6343458;28;20452;-65
2023/06/08 12:00:42;;;;;;;5.43;3.77;;;;;;;;;;6339635;28;20456;-64
2023/06/08 12:03:46;;;;;;;6.20;3.30;;;;;;;;;;6348330;28;20439;-65
2023/06/08 12:06:49;;;;;;;3.77;3.47;;;;;;;;;;6337407;28;20440;-63
2023/06/08 12:09:52;;;;;;;3.70;3.40;;;;;;;;;;6347065;27;20441;-74
2023/06/08 12:12:56;;;;;;;4.60;3.80;;;;;;;;;;6347989;28;20965;-64
2023/06/08 12:15:59;;;;;;;6.57;3.93;;;;;;;;;;6348479;28;20432;-65
2023/06/08 12:19:07;;;;;;;6.60;3.57;;;;;;;;;;6337919;27;20443;-62
2023/06/08 12:22:10;;;;;;;5.97;4.30;;;;;;;;;;6347587;28;20911;-63
2023/06/08 12:25:13;;;;;;;6.70;3.80;;;;;;;;;;6348651;28;20481;-66
2023/06/08 12:28:21;;;;;;;4.33;3.57;;;;;;;;;;6342463;28;20433;-63
2023/06/08 12:31:24;;;;;;;5.30;3.80;;;;;;;;;;6341719;27;20432;-66
2023/06/08 12:34:27;;;;;;;10.40;4.40;;;;;;;;;;6348514;28;20989;-62
2023/06/08 12:37:30;;;;;;;5.53;3.73;;;;;;;;;;6348039;28;21022;-62
2023/06/08 12:40:33;;;;;;;9.43;3.90;;;;;;;;;;6338587;27;20460;-68
2023/06/08 12:43:43;;;;;;;6.80;4.90;;;;;;;;;;6344816;28;20436;-71
2023/06/08 12:46:46;;;;;;;5.77;5.23;;;;;;;;;;6333285;28;20459;-67
2023/06/08 12:49:49;;;;;;;6.10;5.40;;;;;;;;;;6346438;28;20432;-68
2023/06/08 12:52:52;;;;;;;7.20;5.13;;;;;;;;;;6335741;28;20521;-67
2023/06/08 12:55:56;;;;;;;8.30;4.90;;;;;;;;;;6347858;28;20454;-69
2023/06/08 12:59:01;;;;;;;8.77;4.73;;;;;;;;;;6349350;28;20428;-68
2023/06/08 13:02:04;;;;;;;6.07;4.80;;;;;;;;;;6345844;28;20437;-68
2023/06/08 13:05:07;;;;;;;6.40;4.00;;;;;;;;;;6337361;28;20444;-67
2023/06/08 13:08:11;;;;;;;5.00;4.50;;;;;;;;;;6348847;28;20504;-66
2023/06/08 13:11:13;;;;;;;4.40;3.90;;;;;;;;;;6342919;28;21020;-66
2023/06/08 13:14:18;;;;;;;6.20;4.20;;;;;;;;;;6331313;28;20946;-67
2023/06/08 13:17:21;;;;;;;5.10;4.60;;;;;;;;;;6345148;28;20444;-70
2023/06/08 13:20:24;;;;;;;6.70;4.50;;;;;;;;;;6344936;28;20430;-70
2023/06/08 13:23:28;;;;;;;5.63;4.97;;;;;;;;;;6344999;28;20431;-68
2023/06/08 13:26:31;;;;;;;5.47;5.00;;;;;;;;;;6336086;28;20485;-68
2023/06/08 13:29:36;;;;;;;6.57;4.87;;;;;;;;;;6347777;28;20502;-68
2023/06/08 13:32:39;;;;;;;6.23;4.60;;;;;;;;;;6347013;28;20503;-68
2023/06/08 13:35:43;;;;;;;5.13;4.73;;;;;;;;;;6328670;28;21057;-68
2023/06/08 13:38:46;;;;;;;6.07;4.70;;;;;;;;;;6326978;27;20471;-69
2023/06/08 13:41:50;;;;;;;4.73;4.33;;;;;;;;;;6350981;27;20440;-68
2023/06/08 13:44:54;;;;;;;7.17;4.73;;;;;;;;;;6347275;28;20513;-68
2023/06/08 13:47:57;;;;;;;5.77;4.90;;;;;;;;;;6341588;28;20431;-67
2023/06/08 13:51:00;;;;;;;7.30;4.57;;;;;;;;;;6338781;28;20447;-67
2023/06/08 13:54:05;;;;;;;6.47;4.63;;;;;;;;;;6344829;28;20586;-67
2023/06/08 13:57:08;;;;;;;5.20;4.70;;;;;;;;;;6344443;28;20435;-66
2023/06/08 14:00:12;;;;;;;6.10;4.40;;;;;;;;;;6333721;27;20468;-64
2023/06/08 14:03:16;;;;;;;4.47;4.07;;;;;;;;;;6343129;28;20436;-64
2023/06/08 14:06:20;;;;;;;4.73;4.30;;;;;;;;;;6346575;27;20446;-65
2023/06/08 14:09:23;;;;;;;7.23;4.70;;;;;;;;;;6332609;28;20437;-64
2023/06/08 14:12:26;;;;;;;8.43;5.00;;;;;;;;;;6329561;28;20436;-65
2023/06/08 14:15:30;;;;;;;6.77;5.13;;;;;;;;;;6335458;28;20436;-64
2023/06/08 14:18:33;;;;;;;7.90;5.40;;;;;;;;;;6340385;28;20507;-64
2023/06/08 14:21:35;;;;;;;5.73;4.97;;;;;;;;;;6340489;28;20456;-65
2023/06/08 14:24:38;;;;;;;5.30;4.80;;;;;;;;;;6336101;27;20429;-65
2023/06/08 14:27:41;;;;;;;4.73;4.33;;;;;;;;;;6346400;28;20440;-64
2023/06/08 14:30:45;;;;;;;5.20;4.30;;;;;;;;;;6340161;28;20565;-64
2023/06/08 14:33:50;;;;;;;12.00;5.17;;;;;;;;;;6334897;27;20923;-65
2023/06/08 14:36:52;;;;;;;6.97;4.40;;;;;;;;;;6344235;28;20467;-64
2023/06/08 14:39:55;;;;;;;9.30;4.90;;;;;;;;;;6343271;28;20440;-65
2023/06/08 14:42:58;;;;;;;6.17;5.57;;;;;;;;;;6350210;28;20527;-65
2023/06/08 14:46:02;;;;;;;7.23;5.30;;;;;;;;;;6338860;27;20946;-64
2023/06/08 14:49:05;;;;;;;6.57;4.83;;;;;;;;;;6350760;28;20435;-65
2023/06/08 14:52:08;;;;;;;5.80;4.90;;;;;;;;;;6350928;28;20456;-65
2023/06/08 14:55:11;;;;;;;5.53;5.03;;;;;;;;;;6349565;28;20436;-64
2023/06/08 14:58:14;;;;;;;4.97;4.43;;;;;;;;;;6339554;28;20466;-64
2023/06/08 15:01:18;;;;;;;8.27;5.00;;;;;;;;;;6350146;28;20440;-64
2023/06/08 15:04:21;;;;;;;5.83;4.90;;;;;;;;;;6349351;28;20441;-64
2023/06/08 15:07:24;;;;;;;5.60;4.50;;;;;;;;;;6344892;28;20436;-64
2023/06/08 15:10:27;;;;;;;6.00;4.87;;;;;;;;;;6344297;27;20428;-62
2023/06/08 15:13:30;;;;;;;4.93;4.43;;;;;;;;;;6349286;28;20537;-62
2023/06/08 15:16:34;;;;;;;4.53;4.23;;;;;;;;;;6348828;28;20432;-63
2023/06/08 15:19:37;;;;;;;4.70;4.30;;;;;;;;;;6339722;28;20440;-63
2023/06/08 15:22:40;;;;;;;4.80;4.40;;;;;;;;;;6349112;28;20807;-62
2023/06/08 15:25:42;;;;;;;6.03;4.90;;;;;;;;;;6349366;28;20770;-62
2023/06/08 15:28:45;;;;;;;4.87;4.40;;;;;;;;;;6349632;28;20941;-62
2023/06/08 15:31:49;;;;;;;5.63;4.60;;;;;;;;;;6339013;28;20547;-61
2023/06/08 15:34:52;;;;;;;6.90;5.00;;;;;;;;;;6348945;28;20421;-62
2023/06/08 15:37:55;;;;;;;6.50;5.90;;;;;;;;;;6349285;28;20443;-62
2023/06/08 15:40:58;;;;;;;6.40;5.90;;;;;;;;;;6349460;28;20497;-62
2023/06/08 15:44:05;;;;;;;5.67;5.03;;;;;;;;;;6337169;27;20437;-62
2023/06/08 15:47:11;;;;;;;11.70;5.37;;;;;;;;;;6349216;28;20899;-63
2023/06/08 15:50:14;;;;;;;7.27;4.83;;;;;;;;;;6346155;28;20440;-61
2023/06/08 15:53:16;;;;;;;5.73;5.23;;;;;;;;;;6336429;28;20506;-66
2023/06/08 15:56:19;;;;;;;6.80;5.33;;;;;;;;;;6338332;27;20961;-65
2023/06/08 15:59:22;;;;;;;6.00;5.50;;;;;;;;;;6349509;28;20444;-66
2023/06/08 16:02:26;;;;;;;6.83;5.23;;;;;;;;;;6348519;28;20433;-67
2023/06/08 16:05:29;;;;;;;7.13;4.67;;;;;;;;;;6325696;28;20428;-67
2023/06/08 16:08:32;;;;;;;6.53;4.73;;;;;;;;;;6349241;28;20444;-66
2023/06/08 16:11:35;;;;;;;5.00;4.50;;;;;;;;;;6348704;28;20531;-66
2023/06/08 16:14:38;;;;;;;5.83;5.27;;;;;;;;;;6348187;28;20531;-67
2023/06/08 16:17:42;;;;;;;7.70;6.20;;;;;;;;;;6337901;27;20428;-66
2023/06/08 16:20:46;;;;;;;9.47;5.83;;;;;;;;;;6347826;28;20447;-73
2023/06/08 16:23:55;;;;;;;7.00;6.20;;;;;;;;;;6347407;28;20915;-71
2023/06/08 16:26:58;;;;;;;9.93;6.67;;;;;;;;;;6344064;28;20452;-72
2023/06/08 16:30:01;;;;;;;11.20;6.20;;;;;;;;;;6341819;28;20440;-71
2023/06/08 16:33:05;;;;;;;10.27;6.00;;;;;;;;;;6347495;28;20451;-70
2023/06/08 16:36:08;;;;;;;5.70;5.20;;;;;;;;;;6344702;28;20432;-70
2023/06/08 16:39:11;;;;;;;7.03;6.10;;;;;;;;;;6324316;28;20456;-70
2023/06/08 16:42:14;;;;;;;8.07;5.60;;;;;;;;;;6332366;28;20447;-73
2023/06/08 16:45:17;;;;;;;7.13;6.50;;;;;;;;;;6333015;28;20470;-72
2023/06/08 16:48:22;;;;;;;6.50;5.90;;;;;;;;;;6344676;28;20507;-71
2023/06/08 16:51:25;;;;;;;6.43;5.50;;;;;;;;;;6336382;28;20918;-70
2023/06/08 16:54:27;;;;;;;8.57;5.63;;;;;;;;;;6342518;28;20441;-68
2023/06/08 16:57:32;;;;;;;7.03;5.57;;;;;;;;;;6331594;28;20472;-68
2023/06/08 17:00:35;;;;;;;6.10;5.30;;;;;;;;;;6347328;28;20452;-68
2023/06/08 17:03:39;;;;;;;6.70;5.13;;;;;;;;;;6336403;27;20502;-68
2023/06/08 17:06:42;;;;;;;5.20;4.80;;;;;;;;;;6347798;28;20562;-68
2023/06/08 17:09:45;;;;;;;8.57;5.40;;;;;;;;;;6347197;28;20858;-69
2023/06/08 17:12:48;;;;;;;5.90;4.93;;;;;;;;;;6334794;28;20860;-68
2023/06/08 17:15:51;;;;;;;7.50;5.80;;;;;;;;;;6342357;28;20945;-68
2023/06/08 17:18:55;;;;;;;6.30;5.43;;;;;;;;;;6347462;28;20521;-68
2023/06/08 17:21:58;;;;;;;9.43;5.43;;;;;;;;;;6347466;28;20440;-69
2023/06/08 17:25:01;;;;;;;8.13;5.13;;;;;;;;;;6334958;28;20534;-68
2023/06/08 17:28:06;;;;;;;9.13;5.70;;;;;;;;;;6347083;28;20429;-69
2023/06/08 17:31:09;;;;;;;5.57;4.83;;;;;;;;;;6347410;28;20443;-66
2023/06/08 17:34:15;;;;;;;8.27;5.37;;;;;;;;;;6347049;28;20583;-65
2023/06/08 17:37:17;;;;;;;5.73;4.90;;;;;;;;;;6338310;28;20466;-65
2023/06/08 17:40:20;;;;;;;5.47;4.87;;;;;;;;;;6332327;28;20529;-65
2023/06/08 17:43:23;;;;;;;6.03;4.73;;;;;;;;;;6343587;28;20947;-65
2023/06/08 17:46:26;;;;;;;8.53;4.90;;;;;;;;;;6336368;28;20546;-62
2023/06/08 17:49:30;;;;;;;6.33;4.80;;;;;;;;;;6340669;28;20489;-62
2023/06/08 17:52:35;;;;;;;5.67;4.70;;;;;;;;;;6338298;28;20441;-62
2023/06/08 17:55:38;;;;;;;5.30;4.80;;;;;;;;;;6328061;28;20575;-61
2023/06/08 17:58:41;;;;;;;6.67;4.67;;;;;;;;;;6328942;28;20448;-61
2023/06/08 18:01:44;;;;;;;8.57;4.73;;;;;;;;;;6345193;28;20594;-61
2023/06/08 18:04:49;;;;;;;7.10;5.47;;;;;;;;;;6345690;28;20807;-61
2023/06/08 18:07:52;;;;;;;6.73;5.10;;;;;;;;;;6341629;28;20453;-63
2023/06/08 18:10:57;;;;;;;5.27;4.87;;;;;;;;;;6328716;27;20447;-61
2023/06/08 18:13:59;;;;;;;5.73;5.23;;;;;;;;;;6350494;28;20502;-72
2023/06/08 18:17:04;;;;;;;6.47;4.80;;;;;;;;;;6349638;28;20447;-63
2023/06/08 18:20:08;;;;;;;5.33;4.90;;;;;;;;;;6348850;28;20424;-63
2023/06/08 18:23:11;;;;;;;5.30;4.80;;;;;;;;;;6338957;28;20460;-61
2023/06/08 18:26:14;;;;;;;9.33;5.20;;;;;;;;;;6351487;28;20443;-71